Terminal Aerodrome Forecast
Issued by NWS

Home | Current Version | Previous Version | Text Only | Print | Product List | Glossary On
Versions: 1 2 3 4 5 6 7 8 9 10 11 12 13 14 15 16 17 18 19 20 21 22
449
FTUS41 KPHI 282336
TAFMIV
TAF
KMIV 282336Z 2900/2924 09008KT P6SM -SHRA OVC015
     FM290300 08006KT P6SM -SHRA OVC005
     FM290800 VRB03KT 2SM -SHRA BR OVC003
     FM291400 04005KT 4SM BR OVC010
     FM291500 25005KT P6SM BKN010=

USA.gov is the U.S. government's official web portal to all federal, state and local government web resources and services.